Time;durP1;ratioP1;P1;durP2;ratioP2;P2;SDS_P1;SDS_P2;PMS_P1;PMS_P2;Temp;Humidity;BMP_temperature;BMP_pressure;BME280_temperature;BME280_humidity;BME280_pressure;Samples;Min_cycle;Max_cycle;Signal;HPM_P1;HPM_P2
2022/12/05 00:01:17;;;;;;;1.92;1.80;;;1.70;99.90;;;;;;5077939;28;20435;-79
2022/12/05 00:03:46;;;;;;;2.25;2.10;;;1.80;99.90;;;;;;5085071;28;20427;-79
2022/12/05 00:06:13;;;;;;;2.70;2.47;;;1.80;99.90;;;;;;5073763;28;20509;-79
2022/12/05 00:08:39;;;;;;;2.63;2.23;;;1.80;99.90;;;;;;5077707;28;20515;-79
2022/12/05 00:11:12;;;;;;;3.35;1.92;;;1.80;99.90;;;;;;5090139;28;20436;-78
2022/12/05 00:13:40;;;;;;;3.50;2.15;;;1.80;99.90;;;;;;5089946;28;20426;-79
2022/12/05 00:16:11;;;;;;;2.95;2.33;;;1.80;99.90;;;;;;5077538;28;20425;-78
2022/12/05 00:18:41;;;;;;;2.33;1.63;;;1.80;99.90;;;;;;5082728;28;20430;-79
2022/12/05 00:21:20;;;;;;;2.00;1.63;;;1.80;99.90;;;;;;5104452;27;20431;-79
2022/12/05 00:23:48;;;;;;;1.65;1.55;;;1.70;99.90;;;;;;5085465;28;20433;-80
2022/12/05 00:26:15;;;;;;;1.63;1.63;;;1.70;99.90;;;;;;5086791;28;20529;-80
2022/12/05 00:28:42;;;;;;;1.58;1.48;;;1.70;99.90;;;;;;5092338;28;20567;-80
2022/12/05 00:31:16;;;;;;;2.58;2.03;;;1.70;99.90;;;;;;5092984;28;20520;-80
2022/12/05 00:33:44;;;;;;;3.25;2.00;;;1.60;99.90;;;;;;5091710;28;20502;-80
2022/12/05 00:36:14;;;;;;;3.80;2.80;;;1.60;99.90;;;;;;5080651;28;20431;-80
2022/12/05 00:38:41;;;;;;;6.00;2.53;;;1.60;99.90;;;;;;5079198;28;20501;-79
2022/12/05 00:41:14;;;;;;;1.88;1.75;;;1.60;99.90;;;;;;5107004;28;20432;-80
2022/12/05 00:43:41;;;;;;;3.90;2.10;;;1.70;99.90;;;;;;5086122;28;20434;-80
2022/12/05 00:46:14;;;;;;;4.55;2.53;;;1.60;99.90;;;;;;5092898;28;20483;-80
2022/12/05 00:48:41;;;;;;;3.10;2.17;;;1.60;99.90;;;;;;5093604;28;20437;-80
2022/12/05 00:51:20;;;;;;;2.87;1.97;;;1.60;1.00;;;;;;5092910;28;20516;-80
2022/12/05 00:53:47;;;;;;;3.22;1.77;;;1.60;1.00;;;;;;5091519;28;20428;-80
2022/12/05 00:56:17;;;;;;;4.10;1.90;;;1.60;1.00;;;;;;5092936;28;20509;-79
2022/12/05 00:58:44;;;;;;;2.47;2.20;;;1.70;1.00;;;;;;5072672;28;20427;-80
2022/12/05 01:01:15;;;;;;;2.63;1.63;;;1.70;1.00;;;;;;5082996;28;20429;-80
2022/12/05 01:03:44;;;;;;;3.78;1.85;;;1.60;1.00;;;;;;5087463;28;20911;-80
2022/12/05 01:06:13;;;;;;;6.97;2.72;;;1.60;1.00;;;;;;5092578;28;20441;-80
2022/12/05 01:08:40;;;;;;;1.58;1.48;;;1.60;1.00;;;;;;5092588;28;20430;-79
2022/12/05 01:11:12;;;;;;;2.28;2.08;;;1.70;1.00;;;;;;5084835;28;21138;-80
2022/12/05 01:13:39;;;;;;;5.60;2.30;;;1.60;1.00;;;;;;5088222;28;20422;-80
2022/12/05 01:16:12;;;;;;;3.22;2.30;;;1.60;1.00;;;;;;5082118;28;20426;-80
2022/12/05 01:18:39;;;;;;;2.03;1.63;;;1.70;1.00;;;;;;5091648;28;21094;-80
2022/12/05 01:21:06;;;;;;;3.78;1.67;;;1.70;1.00;;;;;;5089281;28;20506;-80
2022/12/05 01:23:32;;;;;;;1.47;1.10;;;1.60;1.00;;;;;;5090416;28;20923;-80
2022/12/05 01:25:59;;;;;;;2.20;1.85;;;1.60;1.00;;;;;;5088769;28;20434;-80
2022/12/05 01:28:26;;;;;;;1.52;1.48;;;1.60;1.00;;;;;;5079489;28;20432;-80
2022/12/05 01:30:53;;;;;;;2.83;1.67;;;1.50;1.00;;;;;;5089688;28;20429;-80
2022/12/05 01:33:19;;;;;;;1.30;1.20;;;1.50;1.00;;;;;;5075166;28;20764;-80
2022/12/05 01:35:46;;;;;;;2.88;1.65;;;1.60;1.00;;;;;;5079475;28;20425;-80
2022/12/05 01:38:20;;;;;;;3.70;2.00;;;1.50;1.00;;;;;;5091873;28;20796;-80
2022/12/05 01:40:47;;;;;;;1.75;1.38;;;1.60;1.00;;;;;;5072495;28;20434;-80
2022/12/05 01:43:17;;;;;;;1.63;1.27;;;1.50;1.00;;;;;;5079290;28;20950;-80
2022/12/05 01:45:45;;;;;;;1.90;1.60;;;1.50;1.00;;;;;;5086143;28;20455;-80
2022/12/05 01:48:18;;;;;;;2.08;1.95;;;1.50;1.00;;;;;;5074424;28;20518;-80
2022/12/05 01:50:47;;;;;;;2.03;1.85;;;1.60;1.00;;;;;;5091874;28;20429;-80
2022/12/05 01:53:17;;;;;;;3.10;1.92;;;1.50;1.00;;;;;;5076658;28;20427;-80
2022/12/05 01:55:46;;;;;;;1.85;1.75;;;1.50;1.00;;;;;;5071460;28;20434;-80
2022/12/05 01:58:15;;;;;;;2.05;1.70;;;1.50;1.00;;;;;;5075097;28;20923;-80
2022/12/05 02:00:43;;;;;;;1.80;1.70;;;1.50;1.00;;;;;;5082699;28;20423;-80
2022/12/05 02:03:17;;;;;;;3.05;2.00;;;1.60;1.00;;;;;;5083597;28;20878;-80
2022/12/05 02:05:48;;;;;;;3.40;1.63;;;1.60;1.00;;;;;;5088736;28;20432;-80
2022/12/05 02:08:15;;;;;;;3.60;2.35;;;1.60;1.00;;;;;;5089906;28;20436;-80
2022/12/05 02:10:47;;;;;;;2.47;1.65;;;1.60;1.00;;;;;;5073703;28;20439;-80
2022/12/05 02:13:22;;;;;;;3.20;2.20;;;1.60;1.00;;;;;;5074820;28;20425;-80
2022/12/05 02:16:27;;;;;;;2.40;2.03;;;1.60;1.00;;;;;;5075434;28;20455;-80
2022/12/05 02:19:27;;;;;;;3.33;1.77;;;1.60;1.00;;;;;;5075101;28;20515;-80
2022/12/05 02:22:18;;;;;;;2.53;1.35;;;1.60;1.00;;;;;;5072263;28;20994;-79
2022/12/05 02:25:11;;;;;;;1.58;1.20;;;1.70;1.00;;;;;;5082208;28;20476;-80
2022/12/05 02:27:42;;;;;;;2.30;1.50;;;1.60;1.00;;;;;;5091368;28;20430;-80
2022/12/05 02:30:21;;;;;;;1.67;1.58;;;1.60;1.00;;;;;;5088546;28;20428;-80
2022/12/05 02:32:56;;;;;;;1.85;1.30;;;1.70;1.00;;;;;;5081757;28;20427;-80
2022/12/05 02:35:36;;;;;;;1.43;1.33;;;1.70;1.00;;;;;;5082412;28;20509;-80
2022/12/05 02:38:32;;;;;;;2.75;2.10;;;1.70;1.00;;;;;;5090092;28;20513;-80
2022/12/05 02:41:33;;;;;;;1.23;1.23;;;1.70;1.00;;;;;;5080056;28;20921;-80
2022/12/05 02:44:11;;;;;;;1.77;1.67;;;1.60;1.00;;;;;;5065942;28;20426;-80
2022/12/05 02:46:40;;;;;;;2.35;2.10;;;1.70;1.00;;;;;;5083744;28;20422;-80
2022/12/05 02:49:15;;;;;;;5.03;1.90;;;1.70;1.00;;;;;;5081905;28;20435;-80
2022/12/05 02:51:47;;;;;;;3.10;2.10;;;1.70;1.00;;;;;;5078422;28;20441;-80
2022/12/05 02:54:20;;;;;;;2.13;1.80;;;1.70;1.00;;;;;;5087843;28;20418;-81
2022/12/05 02:56:50;;;;;;;3.20;1.73;;;1.70;1.00;;;;;;5082212;28;20427;-80
2022/12/05 02:59:17;;;;;;;2.28;2.00;;;1.70;1.00;;;;;;5074378;28;20424;-80
2022/12/05 03:01:49;;;;;;;4.93;2.47;;;1.70;1.00;;;;;;5082283;28;20491;-80
2022/12/05 03:04:17;;;;;;;6.03;2.70;;;1.60;1.00;;;;;;5073674;28;20434;-80
2022/12/05 03:06:56;;;;;;;1.48;1.38;;;1.60;1.00;;;;;;5088266;28;20841;-80
2022/12/05 03:09:41;;;;;;;3.35;2.05;;;1.60;1.00;;;;;;5085334;28;20923;-79
2022/12/05 03:12:16;;;;;;;1.67;1.50;;;1.70;1.00;;;;;;5070881;28;20427;-80
2022/12/05 03:14:47;;;;;;;1.90;1.55;;;1.70;1.00;;;;;;5083671;28;20423;-79
2022/12/05 03:17:17;;;;;;;4.10;1.55;;;1.70;1.00;;;;;;5071717;28;20424;-79
2022/12/05 03:19:44;;;;;;;2.13;1.70;;;1.80;1.00;;;;;;5073625;28;20428;-78
2022/12/05 03:22:25;;;;;;;2.15;2.05;;;1.80;1.00;;;;;;5074293;28;20431;-79
2022/12/05 03:24:53;;;;;;;2.90;2.03;;;1.80;1.00;;;;;;5082116;28;20800;-79
2022/12/05 03:27:22;;;;;;;3.00;2.22;;;1.80;1.00;;;;;;5077448;28;20518;-79
2022/12/05 03:30:00;;;;;;;2.43;1.77;;;1.80;1.00;;;;;;5088537;28;20520;-79
2022/12/05 03:32:39;;;;;;;2.42;1.77;;;1.70;1.00;;;;;;5080403;28;20428;-79
2022/12/05 03:35:18;;;;;;;2.70;1.45;;;1.70;1.00;;;;;;5078957;28;20791;-79
2022/12/05 03:38:33;;;;;;;4.50;2.05;;;1.70;1.00;;;;;;5085132;28;20489;-79
2022/12/05 03:41:40;;;;;;;4.00;2.22;;;1.70;1.00;;;;;;5080083;28;20453;-79
2022/12/05 03:44:23;;;;;;;3.53;1.80;;;1.70;1.00;;;;;;5087184;28;20493;-79
2022/12/05 03:46:55;;;;;;;2.13;1.90;;;1.70;1.00;;;;;;5091899;28;20421;-79
2022/12/05 03:49:43;;;;;;;2.08;1.85;;;1.70;1.00;;;;;;5091975;28;20977;-79
2022/12/05 03:52:34;;;;;;;2.95;1.85;;;1.70;1.00;;;;;;5074618;28;21241;-79
2022/12/05 03:55:25;;;;;;;3.85;2.65;;;1.70;1.00;;;;;;5086662;28;20496;-79
2022/12/05 03:58:11;;;;;;;4.95;2.30;;;1.70;1.00;;;;;;5091771;28;20432;-79
2022/12/05 04:00:43;;;;;;;2.55;2.08;;;1.70;1.00;;;;;;5091823;28;20428;-79
2022/12/05 04:03:18;;;;;;;3.13;2.08;;;1.70;1.00;;;;;;5090745;28;20426;-79
2022/12/05 04:05:53;;;;;;;5.10;2.65;;;1.70;1.00;;;;;;5089148;28;20526;-79
2022/12/05 04:08:28;;;;;;;2.30;2.10;;;1.70;1.00;;;;;;5079384;28;20439;-79
2022/12/05 04:11:00;;;;;;;3.45;2.00;;;1.70;1.00;;;;;;5090512;28;20428;-79
2022/12/05 04:13:37;;;;;;;8.65;3.47;;;1.70;1.00;;;;;;5091162;28;20434;-79
2022/12/05 04:21:37;;;;;;;4.10;1.90;;;1.70;1.00;;;;;;5081065;28;20456;-79
2022/12/05 04:22:18;;;;;;;3.27;2.07;;;1.70;1.00;;;;;;5088787;28;20513;-79
2022/12/05 04:27:41;;;;;;;1.73;1.63;;;1.70;1.00;;;;;;5081165;28;20898;-79
2022/12/05 04:30:13;;;;;;;4.30;3.05;;;1.70;1.00;;;;;;5081704;28;20429;-79
2022/12/05 04:32:58;;;;;;;4.20;2.28;;;1.70;1.00;;;;;;5086461;28;20511;-79
2022/12/05 04:35:33;;;;;;;1.43;1.33;;;1.70;1.00;;;;;;5093847;28;20445;-78
2022/12/05 04:38:10;;;;;;;3.00;2.75;;;1.70;1.00;;;;;;5090643;28;20430;-79
2022/12/05 04:40:43;;;;;;;4.55;1.75;;;1.70;1.00;;;;;;5091506;28;20516;-79
2022/12/05 04:43:12;;;;;;;3.75;2.30;;;1.70;1.00;;;;;;5081590;28;20486;-79
2022/12/05 04:45:40;;;;;;;2.53;1.98;;;1.70;1.00;;;;;;5072742;28;20922;-79
2022/12/05 04:48:12;;;;;;;3.53;1.80;;;1.70;1.00;;;;;;5073025;28;20435;-79
2022/12/05 04:50:41;;;;;;;2.90;2.35;;;1.70;1.00;;;;;;5088969;28;20793;-79
2022/12/05 04:53:11;;;;;;;3.30;2.25;;;1.70;1.00;;;;;;5072529;28;20440;-79
2022/12/05 04:55:42;;;;;;;2.95;2.67;;;1.70;1.00;;;;;;5072984;28;21191;-79
2022/12/05 04:58:11;;;;;;;4.65;2.47;;;1.60;1.00;;;;;;5082957;28;20773;-78
2022/12/05 05:01:05;;;;;;;2.50;2.25;;;1.60;1.00;;;;;;5092109;28;20981;-79
2022/12/05 05:03:56;;;;;;;7.03;2.60;;;1.60;5.40;;;;;;5090439;28;20425;-79
2022/12/05 05:06:23;;;;;;;2.95;1.98;;;1.70;15.20;;;;;;5092440;28;20867;-79
2022/12/05 05:08:55;;;;;;;3.00;2.00;;;1.70;21.80;;;;;;5086392;28;20508;-79
2022/12/05 05:11:24;;;;;;;3.40;2.20;;;1.70;22.60;;;;;;5088905;28;20478;-79
2022/12/05 05:13:52;;;;;;;2.85;2.05;;;1.70;25.20;;;;;;5083229;28;20505;-78
2022/12/05 05:16:21;;;;;;;2.45;2.05;;;1.70;28.70;;;;;;5096589;28;20425;-79
2022/12/05 05:18:49;;;;;;;3.83;2.25;;;1.70;31.80;;;;;;5107412;28;20420;-79
2022/12/05 05:21:28;;;;;;;4.38;1.88;;;1.70;33.70;;;;;;5098927;28;20427;-79
2022/12/05 05:23:55;;;;;;;4.05;1.90;;;1.70;35.80;;;;;;5074802;28;20809;-79
2022/12/05 05:26:23;;;;;;;3.78;2.13;;;1.70;40.10;;;;;;5092371;28;20914;-79
2022/12/05 05:28:50;;;;;;;2.10;1.67;;;1.80;40.90;;;;;;5091444;28;20444;-79
2022/12/05 05:31:18;;;;;;;4.47;2.75;;;1.70;39.80;;;;;;5072281;28;20442;-79
2022/12/05 05:33:52;;;;;;;3.60;2.10;;;1.70;38.90;;;;;;5078879;28;20457;-79
2022/12/05 05:36:21;;;;;;;3.25;1.95;;;1.70;44.80;;;;;;5089633;28;20417;-79
2022/12/05 05:38:50;;;;;;;3.42;2.60;;;1.80;40.30;;;;;;5089474;28;20479;-78
2022/12/05 05:41:20;;;;;;;3.15;2.78;;;1.80;31.80;;;;;;5076492;28;20518;-79
2022/12/05 05:43:47;;;;;;;6.10;2.88;;;1.80;26.10;;;;;;5071504;28;20430;-79
2022/12/05 05:46:17;;;;;;;4.10;2.80;;;1.80;23.30;;;;;;5077070;28;20422;-78
2022/12/05 05:48:43;;;;;;;2.17;2.05;;;1.80;28.10;;;;;;5084970;28;20479;-79
2022/12/05 05:51:11;;;;;;;3.77;1.93;;;1.80;38.30;;;;;;5083524;28;20528;-78
2022/12/05 05:53:38;;;;;;;2.25;1.80;;;1.80;45.60;;;;;;5088015;28;20991;-79
2022/12/05 05:56:14;;;;;;;5.27;2.77;;;1.90;49.60;;;;;;5084365;28;20819;-79
2022/12/05 05:58:53;;;;;;;5.57;2.92;;;1.90;53.30;;;;;;5086063;28;20429;-79
2022/12/05 06:01:20;;;;;;;2.05;1.90;;;1.90;55.70;;;;;;5079651;28;22514;-79
2022/12/05 06:03:49;;;;;;;2.60;1.80;;;1.90;60.10;;;;;;5086325;28;20432;-79
2022/12/05 06:06:18;;;;;;;3.60;2.47;;;1.90;56.90;;;;;;5087173;28;20432;-79
2022/12/05 06:08:47;;;;;;;5.65;2.88;;;1.80;56.70;;;;;;5086406;28;22916;-78
2022/12/05 06:11:19;;;;;;;4.32;2.08;;;1.90;57.40;;;;;;5074398;28;21310;-79
2022/12/05 06:13:56;;;;;;;2.45;2.20;;;1.90;59.40;;;;;;5086121;28;20422;-79
2022/12/05 06:16:24;;;;;;;3.78;2.50;;;1.90;57.60;;;;;;5085746;28;20482;-79
2022/12/05 06:18:51;;;;;;;2.70;2.33;;;1.80;55.30;;;;;;5076690;28;20432;-78
2022/12/05 06:21:18;;;;;;;2.38;1.98;;;1.90;56.00;;;;;;5073648;28;20422;-79
2022/12/05 06:23:45;;;;;;;4.43;2.40;;;1.90;57.80;;;;;;5080591;28;20431;-78
2022/12/05 06:26:15;;;;;;;4.88;2.55;;;1.90;62.50;;;;;;5090901;28;20430;-79
2022/12/05 06:28:43;;;;;;;5.25;2.58;;;1.90;68.40;;;;;;5088936;28;20429;-79
2022/12/05 06:31:16;;;;;;;2.83;1.88;;;1.90;70.50;;;;;;5078514;28;20441;-75
2022/12/05 06:33:43;;;;;;;4.35;3.05;;;1.90;69.00;;;;;;5078926;28;20437;-74
2022/12/05 06:36:13;;;;;;;3.20;2.05;;;1.90;72.00;;;;;;5067012;28;20812;-75
2022/12/05 06:38:40;;;;;;;3.40;2.08;;;1.90;76.10;;;;;;5082198;28;20432;-75
2022/12/05 06:41:14;;;;;;;3.13;1.90;;;1.90;81.30;;;;;;5084938;28;20439;-75
2022/12/05 06:43:41;;;;;;;3.13;2.17;;;1.90;85.70;;;;;;5084559;28;20429;-75
2022/12/05 06:46:10;;;;;;;3.35;1.50;;;1.90;92.40;;;;;;5080864;28;20458;-75
2022/12/05 06:48:38;;;;;;;2.88;2.30;;;1.90;93.10;;;;;;5076595;28;20490;-75
2022/12/05 06:51:07;;;;;;;5.60;2.35;;;1.90;92.80;;;;;;5073562;28;20426;-75
2022/12/05 06:53:34;;;;;;;4.93;2.60;;;1.90;93.20;;;;;;5075167;28;20901;-75
2022/12/05 06:56:04;;;;;;;3.10;2.33;;;1.90;94.20;;;;;;5082537;28;20423;-75
2022/12/05 06:58:31;;;;;;;2.10;2.00;;;1.90;95.20;;;;;;5084023;28;20426;-75
2022/12/05 07:03:44;;;;;;;2.50;2.03;;;1.90;99.10;;;;;;5081950;28;20431;-75
2022/12/05 07:06:10;;;;;;;5.20;2.60;;;1.90;99.90;;;;;;5081102;28;20431;-75
2022/12/05 07:08:37;;;;;;;4.75;1.70;;;1.90;99.90;;;;;;5087793;28;20426;-75
2022/12/05 07:11:04;;;;;;;3.80;2.33;;;2.00;99.90;;;;;;5075932;28;20421;-76
2022/12/05 07:13:31;;;;;;;2.35;1.83;;;2.00;99.90;;;;;;5094485;28;20428;-75
2022/12/05 07:15:58;;;;;;;3.17;2.33;;;2.00;99.90;;;;;;5081518;27;20433;-74
2022/12/05 07:18:26;;;;;;;2.60;1.80;;;2.00;99.90;;;;;;5090769;28;20488;-75
2022/12/05 07:20:57;;;;;;;3.88;2.20;;;2.10;99.90;;;;;;5083673;28;20442;-75
2022/12/05 07:23:44;;;;;;;3.58;2.38;;;2.00;99.90;;;;;;5075511;28;20465;-75
2022/12/05 07:26:14;;;;;;;5.65;2.67;;;2.00;99.90;;;;;;5088991;28;20427;-75
2022/12/05 07:28:42;;;;;;;2.50;1.88;;;2.00;99.90;;;;;;5078549;28;20450;-75
2022/12/05 07:31:13;;;;;;;2.13;2.00;;;2.10;99.90;;;;;;5082159;28;20454;-75
2022/12/05 07:33:40;;;;;;;2.20;1.88;;;2.10;99.90;;;;;;5091172;28;20457;-74
2022/12/05 07:36:13;;;;;;;5.50;2.33;;;2.10;99.90;;;;;;5078840;28;20446;-74
2022/12/05 07:38:42;;;;;;;6.60;2.08;;;2.10;99.90;;;;;;5089015;28;20428;-74
2022/12/05 07:41:19;;;;;;;4.47;2.17;;;2.20;99.90;;;;;;5090731;28;20454;-74
2022/12/05 07:43:46;;;;;;;2.65;1.85;;;2.20;99.90;;;;;;5086209;28;20422;-74
2022/12/05 07:46:13;;;;;;;2.92;2.35;;;2.20;99.90;;;;;;5084780;28;20429;-74
2022/12/05 07:48:40;;;;;;;4.15;2.60;;;2.20;99.90;;;;;;5079233;28;20434;-75
2022/12/05 07:51:10;;;;;;;2.35;2.15;;;2.30;99.90;;;;;;5081375;28;20431;-75
2022/12/05 07:53:38;;;;;;;3.03;2.08;;;2.30;99.90;;;;;;5082854;28;20543;-75
2022/12/05 07:56:07;;;;;;;5.78;2.80;;;2.30;99.90;;;;;;5087792;28;20421;-75
2022/12/05 07:58:35;;;;;;;5.15;1.75;;;2.30;99.90;;;;;;5082547;28;20426;-75
2022/12/05 08:01:14;;;;;;;3.85;2.58;;;2.30;99.90;;;;;;5084198;28;20425;-75
2022/12/05 08:03:42;;;;;;;3.08;1.98;;;2.30;99.90;;;;;;5083546;28;21106;-74
2022/12/05 08:06:12;;;;;;;3.80;2.13;;;2.30;99.90;;;;;;5085007;28;20426;-75
2022/12/05 08:08:39;;;;;;;2.70;1.92;;;2.40;99.90;;;;;;5088095;28;20425;-74
2022/12/05 08:11:11;;;;;;;6.45;2.40;;;2.30;99.90;;;;;;5077449;28;20452;-74
2022/12/05 08:13:38;;;;;;;4.00;2.27;;;2.40;99.90;;;;;;5091162;28;20460;-75
2022/12/05 08:16:09;;;;;;;3.35;2.17;;;2.40;99.90;;;;;;5085907;28;20447;-75
2022/12/05 08:18:36;;;;;;;4.40;2.10;;;2.40;99.90;;;;;;5085020;28;20993;-75
2022/12/05 08:21:08;;;;;;;6.63;3.40;;;2.40;99.90;;;;;;5084038;28;20423;-75
2022/12/05 08:23:39;;;;;;;7.93;3.85;;;2.50;99.90;;;;;;5075234;28;20422;-74
2022/12/05 08:26:12;;;;;;;3.45;2.30;;;2.50;99.90;;;;;;5081309;28;20435;-75
2022/12/05 08:28:39;;;;;;;10.15;3.75;;;2.60;99.90;;;;;;5092310;28;20430;-75
2022/12/05 08:31:07;;;;;;;4.10;2.13;;;2.60;99.90;;;;;;5084182;28;20429;-75
2022/12/05 08:33:34;;;;;;;5.00;3.17;;;2.60;99.90;;;;;;5071704;28;20578;-74
2022/12/05 08:36:06;;;;;;;5.47;2.50;;;2.60;97.80;;;;;;5074273;28;20422;-75
2022/12/05 08:38:34;;;;;;;2.55;2.25;;;2.60;97.80;;;;;;5083755;28;20418;-75
2022/12/05 08:41:06;;;;;;;2.40;2.13;;;2.70;97.50;;;;;;5081220;28;20455;-75
2022/12/05 08:43:33;;;;;;;4.72;2.75;;;2.70;98.50;;;;;;5085432;28;20999;-75
2022/12/05 08:46:04;;;;;;;4.28;2.38;;;2.80;99.90;;;;;;5073236;28;20431;-75
2022/12/05 08:48:32;;;;;;;2.90;2.50;;;2.90;99.20;;;;;;5076557;28;20975;-74
2022/12/05 08:51:07;;;;;;;2.78;2.47;;;3.00;99.90;;;;;;5075267;28;20727;-75
2022/12/05 08:53:35;;;;;;;3.63;2.88;;;3.10;99.90;;;;;;5079995;28;20513;-75
2022/12/05 08:56:10;;;;;;;5.18;2.40;;;3.10;99.90;;;;;;5082380;28;20418;-75
2022/12/05 08:58:37;;;;;;;3.70;2.10;;;3.20;99.90;;;;;;5079396;28;20917;-74
2022/12/05 09:01:14;;;;;;;4.32;3.05;;;3.30;96.90;;;;;;5081619;28;20428;-74
2022/12/05 09:03:42;;;;;;;5.45;2.58;;;3.30;85.80;;;;;;5068093;28;20434;-74
2022/12/05 09:06:19;;;;;;;3.25;2.17;;;3.30;62.60;;;;;;5078509;28;20465;-74
2022/12/05 09:08:46;;;;;;;3.45;2.70;;;3.30;38.20;;;;;;5084855;28;20509;-75
2022/12/05 09:11:16;;;;;;;5.75;2.10;;;3.30;1.00;;;;;;5078714;28;20427;-75
2022/12/05 09:13:50;;;;;;;3.25;2.35;;;3.30;1.00;;;;;;5082026;28;20846;-75
2022/12/05 09:16:22;;;;;;;7.85;2.17;;;3.20;1.00;;;;;;5084938;28;20475;-75
2022/12/05 09:18:50;;;;;;;2.80;2.17;;;3.20;1.00;;;;;;5071131;28;20435;-75
2022/12/05 09:21:22;;;;;;;3.10;2.70;;;3.30;1.00;;;;;;5090023;28;20430;-75
2022/12/05 09:23:49;;;;;;;1.80;1.65;;;3.40;1.00;;;;;;5075178;28;20487;-75
2022/12/05 09:26:19;;;;;;;3.42;2.67;;;3.40;1.00;;;;;;5077923;28;20483;-76
2022/12/05 09:28:46;;;;;;;7.70;2.78;;;3.40;1.00;;;;;;5082352;28;20812;-76
2022/12/05 09:31:16;;;;;;;6.50;2.40;;;3.40;1.00;;;;;;5076084;28;20659;-76
2022/12/05 09:33:43;;;;;;;4.05;1.77;;;3.40;1.00;;;;;;5074537;28;20442;-76
2022/12/05 09:36:15;;;;;;;3.53;3.05;;;3.40;1.00;;;;;;5072574;28;20427;-76
2022/12/05 09:38:42;;;;;;;2.13;1.90;;;3.40;1.00;;;;;;5078647;28;20465;-76
2022/12/05 09:44:42;;;;;;;2.65;1.90;;;3.10;99.90;;;;;;5077348;28;21225;-76
2022/12/05 09:47:48;;;;;;;10.05;2.33;;;3.10;99.90;;;;;;5082057;28;20449;-76
2022/12/05 09:50:21;;;;;;;3.78;2.45;;;3.30;1.00;;;;;;5047192;28;20441;-76
2022/12/05 09:53:23;;;;;;;1.80;1.67;;;3.30;1.00;;;;;;5060801;28;20457;-77
2022/12/05 09:56:07;;;;;;;2.73;2.10;;;3.40;1.00;;;;;;5059615;28;21009;-77
2022/12/05 09:58:49;;;;;;;6.17;2.40;;;3.40;99.90;;;;;;5044559;28;20494;-76
2022/12/05 10:02:10;;;;;;;6.63;3.07;;;3.40;99.90;;;;;;5060872;28;20475;-82
2022/12/05 10:04:40;;;;;;;7.70;2.67;;;3.40;99.90;;;;;;5060105;28;20510;-77
2022/12/05 10:07:48;;;;;;;7.75;2.17;;;3.60;1.00;;;;;;5059773;28;20543;-77
2022/12/05 10:10:47;;;;;;;6.60;2.53;;;3.80;1.00;;;;;;5003262;28;20529;-76
2022/12/05 10:13:36;;;;;;;2.47;2.20;;;3.80;99.90;;;;;;4968368;28;20439;-78
2022/12/05 10:16:20;;;;;;;5.28;2.53;;;3.80;99.90;;;;;;5002827;28;20464;-78
2022/12/05 10:18:57;;;;;;;4.85;2.22;;;3.90;99.90;;;;;;5007335;28;20524;-77
2022/12/05 10:21:32;;;;;;;3.25;2.08;;;4.00;99.90;;;;;;4992640;28;20705;-78
2022/12/05 10:24:04;;;;;;;5.00;2.20;;;4.10;99.90;;;;;;5018594;28;20931;-77
2022/12/05 10:26:39;;;;;;;4.82;2.28;;;4.10;99.90;;;;;;5017428;28;20438;-75
2022/12/05 10:29:18;;;;;;;2.25;1.83;;;4.00;99.90;;;;;;5022220;28;20466;-76
2022/12/05 10:31:47;;;;;;;5.00;2.67;;;4.00;99.90;;;;;;5026230;28;20435;-75
2022/12/05 10:34:37;;;;;;;2.50;2.33;;;3.80;99.90;;;;;;5024631;28;20438;-75
2022/12/05 10:37:14;;;;;;;4.80;1.90;;;3.80;99.90;;;;;;5026234;28;20510;-77
2022/12/05 10:39:41;;;;;;;2.70;2.40;;;3.80;99.90;;;;;;5023181;28;20430;-75
2022/12/05 10:42:34;;;;;;;8.52;2.60;;;3.90;99.90;;;;;;5076863;28;20423;-75
2022/12/05 10:45:04;;;;;;;3.65;2.40;;;4.00;99.90;;;;;;5088267;28;20425;-76
2022/12/05 10:47:32;;;;;;;2.47;2.20;;;4.10;99.90;;;;;;5085944;28;20418;-75
2022/12/05 10:50:07;;;;;;;6.63;2.28;;;4.30;99.90;;;;;;5077858;28;20422;-75
2022/12/05 10:52:34;;;;;;;2.90;1.95;;;4.20;99.90;;;;;;5082768;28;20461;-75
2022/12/05 10:55:05;;;;;;;1.95;1.83;;;4.30;99.90;;;;;;5081947;28;20502;-75
2022/12/05 10:57:32;;;;;;;2.83;2.03;;;4.10;99.90;;;;;;5082036;28;20431;-75
2022/12/05 11:00:12;;;;;;;5.03;2.38;;;4.10;99.90;;;;;;5087750;28;20414;-75
2022/12/05 11:02:41;;;;;;;2.28;1.90;;;4.00;99.90;;;;;;5086230;28;20456;-76
2022/12/05 11:05:11;;;;;;;5.53;1.90;;;4.00;99.90;;;;;;5067613;28;20430;-75
2022/12/05 11:07:43;;;;;;;4.85;2.40;;;4.00;99.90;;;;;;5087622;28;20426;-75
2022/12/05 11:10:39;;;;;;;3.97;2.97;;;4.00;99.90;;;;;;5082659;28;20521;-76
2022/12/05 11:13:23;;;;;;;2.65;2.03;;;4.00;99.90;;;;;;5083920;28;20679;-76
2022/12/05 11:15:50;;;;;;;2.92;2.10;;;3.80;99.90;;;;;;5081836;28;20474;-76
2022/12/05 11:18:29;;;;;;;3.03;2.28;;;3.80;99.90;;;;;;5080390;28;20473;-72
2022/12/05 11:21:08;;;;;;;2.83;2.13;;;3.80;99.90;;;;;;5075953;28;20843;-71
2022/12/05 11:23:34;;;;;;;2.30;1.60;;;3.70;99.90;;;;;;5078017;28;20965;-73
2022/12/05 11:26:01;;;;;;;5.95;2.40;;;3.80;99.90;;;;;;5078052;28;20435;-71
2022/12/05 11:28:37;;;;;;;3.15;2.17;;;3.90;57.70;;;;;;5078694;28;20440;-71
2022/12/05 11:34:53;;;;;;;2.47;2.28;;;4.30;99.90;;;;;;5009393;28;20415;-72
2022/12/05 11:37:25;;;;;;;3.10;2.38;;;4.40;99.90;;;;;;5010974;28;20432;-72
2022/12/05 11:39:52;;;;;;;4.07;2.13;;;4.30;99.90;;;;;;5001693;28;20429;-72
2022/12/05 11:42:43;;;;;;;3.15;2.55;;;4.50;99.90;;;;;;5018602;28;20975;-71
2022/12/05 11:45:43;;;;;;;3.97;2.13;;;4.50;99.90;;;;;;5024254;28;20496;-72
2022/12/05 11:48:29;;;;;;;2.83;2.60;;;4.60;99.90;;;;;;5021968;28;20438;-72
2022/12/05 11:51:18;;;;;;;3.23;1.70;;;4.40;99.90;;;;;;5015820;28;20429;-72
2022/12/05 11:54:08;;;;;;;3.35;2.20;;;4.40;99.90;;;;;;5024609;28;20682;-70
2022/12/05 11:56:38;;;;;;;3.40;2.23;;;4.30;99.90;;;;;;5009893;28;20428;-72
2022/12/05 11:59:34;;;;;;;4.75;2.33;;;4.20;99.90;;;;;;5025274;28;20652;-70
2022/12/05 12:02:24;;;;;;;4.95;2.15;;;4.10;99.90;;;;;;5015428;28;20457;-70
2022/12/05 12:05:21;;;;;;;2.47;2.23;;;4.00;99.90;;;;;;5014951;28;21004;-70
2022/12/05 12:08:07;;;;;;;4.03;2.63;;;4.10;99.90;;;;;;5011547;28;20437;-70
2022/12/05 12:10:43;;;;;;;5.38;3.08;;;4.10;99.90;;;;;;5020307;28;20435;-70
2022/12/05 12:13:40;;;;;;;5.57;1.85;;;4.10;99.90;;;;;;5080165;28;20433;-71
2022/12/05 12:16:39;;;;;;;2.78;2.22;;;4.10;99.90;;;;;;5072586;28;20435;-69
2022/12/05 12:19:21;;;;;;;1.95;1.85;;;4.10;99.90;;;;;;5080820;28;20433;-69
2022/12/05 12:21:53;;;;;;;3.20;2.13;;;4.10;99.90;;;;;;5074353;28;20920;-61
2022/12/05 12:24:32;;;;;;;5.15;2.40;;;4.10;99.90;;;;;;5084645;28;20793;-69
2022/12/05 12:27:26;;;;;;;5.25;2.30;;;4.10;99.90;;;;;;5078585;28;20430;-69
2022/12/05 12:30:06;;;;;;;3.10;2.03;;;4.20;99.90;;;;;;5088855;28;20455;-74
2022/12/05 12:32:51;;;;;;;1.88;1.40;;;4.10;99.90;;;;;;5072104;28;20487;-75
2022/12/05 12:35:24;;;;;;;3.47;1.55;;;4.10;99.90;;;;;;5080533;28;20425;-75
2022/12/05 12:38:16;;;;;;;3.45;2.55;;;4.10;99.90;;;;;;5085376;28;20438;-75
2022/12/05 12:41:10;;;;;;;7.22;2.47;;;4.10;99.90;;;;;;5086995;28;20422;-74
2022/12/05 12:44:01;;;;;;;6.03;1.83;;;4.10;99.90;;;;;;5073821;28;20437;-74
2022/12/05 12:46:39;;;;;;;4.43;1.30;;;4.10;99.90;;;;;;5077247;28;20430;-74
2022/12/05 12:49:44;;;;;;;5.22;2.38;;;4.10;99.90;;;;;;5084282;28;20680;-74
2022/12/05 12:52:19;;;;;;;3.80;2.38;;;4.00;99.90;;;;;;5082960;28;20440;-74
2022/12/05 12:54:52;;;;;;;2.40;2.20;;;4.00;99.90;;;;;;5088825;28;20432;-76
2022/12/05 12:57:46;;;;;;;2.60;2.00;;;3.90;82.30;;;;;;5076534;28;20436;-76
2022/12/05 13:00:37;;;;;;;4.32;2.70;;;3.90;1.00;;;;;;5084579;28;20426;-76
2022/12/05 13:03:24;;;;;;;2.05;1.90;;;3.90;99.90;;;;;;5074665;28;20493;-76
2022/12/05 13:05:56;;;;;;;3.10;1.90;;;3.80;1.00;;;;;;5077694;28;20422;-76
2022/12/05 13:08:27;;;;;;;2.60;1.90;;;3.90;1.00;;;;;;5079733;28;20436;-76
2022/12/05 13:10:57;;;;;;;2.70;2.23;;;3.90;1.00;;;;;;5081557;28;20430;-76
2022/12/05 13:13:33;;;;;;;5.47;2.17;;;3.90;1.00;;;;;;5085682;28;20430;-76
2022/12/05 13:16:02;;;;;;;7.10;2.92;;;3.90;32.70;;;;;;5080073;28;20432;-76
2022/12/05 13:18:29;;;;;;;3.50;1.80;;;3.90;85.20;;;;;;5085811;28;20483;-75
2022/12/05 13:20:58;;;;;;;4.15;2.40;;;3.90;99.90;;;;;;5082432;28;20465;-75
2022/12/05 13:23:28;;;;;;;3.65;2.53;;;3.90;99.90;;;;;;5084243;28;20435;-75
2022/12/05 13:25:57;;;;;;;2.05;1.90;;;4.00;99.90;;;;;;5087677;28;20434;-75
2022/12/05 13:28:31;;;;;;;4.07;1.55;;;3.90;99.90;;;;;;5084064;28;20422;-75
2022/12/05 13:31:04;;;;;;;5.05;1.67;;;3.90;99.90;;;;;;5078255;28;20921;-75
2022/12/05 13:33:50;;;;;;;3.50;2.10;;;4.00;99.90;;;;;;5085440;28;20429;-75
2022/12/05 13:42:28;;;;;;;2.20;1.77;;;3.90;99.90;;;;;;5085991;28;20896;-75
2022/12/05 13:45:07;;;;;;;3.13;1.67;;;3.90;99.90;;;;;;5086273;28;20425;-75
2022/12/05 13:47:52;;;;;;;5.93;2.45;;;3.90;1.00;;;;;;5084741;28;20491;-75
2022/12/05 13:50:31;;;;;;;5.47;3.00;;;3.90;1.00;;;;;;5084048;28;20529;-75
2022/12/05 13:53:24;;;;;;;3.03;2.10;;;4.00;1.00;;;;;;5087359;28;20776;-75
2022/12/05 13:56:05;;;;;;;3.35;2.25;;;3.90;1.00;;;;;;5096438;28;20431;-75
2022/12/05 13:58:50;;;;;;;2.13;1.90;;;3.90;1.00;;;;;;5078987;28;20831;-75
2022/12/05 14:01:26;;;;;;;5.10;2.58;;;3.90;1.00;;;;;;5074651;28;20901;-75